createdAt,value
2022-11-20T00:03:39.959Z,-1.21
2022-11-20T00:07:16.994Z,-1.23
2022-11-20T00:10:54.878Z,-1.27
2022-11-20T00:14:32.540Z,-1.28
2022-11-20T00:18:10.354Z,-1.28
2022-11-20T00:21:52.321Z,-1.29
2022-11-20T00:25:25.763Z,-1.29
2022-11-20T00:29:03.875Z,-1.28
2022-11-20T00:32:41.170Z,-1.27
2022-11-20T00:36:24.303Z,-1.25
2022-11-20T00:39:56.578Z,-1.24
2022-11-20T00:43:34.078Z,-1.24
2022-11-20T00:47:11.888Z,-1.26
2022-11-20T00:50:49.486Z,-1.24
2022-11-20T00:54:27.197Z,-1.23
2022-11-20T00:58:05.336Z,-1.23
2022-11-20T01:01:42.577Z,-1.24
2022-11-20T01:05:20.303Z,-1.25
2022-11-20T01:09:00.981Z,-1.25
2022-11-20T01:12:35.710Z,-1.24
2022-11-20T01:16:19.355Z,-1.22
2022-11-20T01:19:51.786Z,-1.19
2022-11-20T01:23:31.995Z,-1.16
2022-11-20T01:27:06.428Z,-1.15
2022-11-20T01:30:44.232Z,-1.17
2022-11-20T01:34:23.738Z,-1.17
2022-11-20T01:37:59.641Z,-1.20
2022-11-20T01:41:56.392Z,-1.23
2022-11-20T01:45:46.179Z,-1.26
2022-11-20T01:49:17.752Z,-1.27
2022-11-20T01:52:40.406Z,-1.28
2022-11-20T01:56:15.021Z,-1.28
2022-11-20T01:59:58.159Z,-1.29
2022-11-20T02:03:27.566Z,-1.30
2022-11-20T02:07:06.535Z,-1.31
2022-11-20T02:10:42.357Z,-1.30
2022-11-20T02:14:21.074Z,-1.31
2022-11-20T02:18:41.287Z,-1.31
2022-11-20T02:22:07.627Z,-1.28
2022-11-20T02:25:48.349Z,-1.27
2022-11-20T02:29:07.468Z,-1.26
2022-11-20T02:32:44.249Z,-1.25
2022-11-20T02:36:22.261Z,-1.26
2022-11-20T02:39:59.151Z,-1.26
2022-11-20T02:43:36.952Z,-1.29
2022-11-20T02:47:14.558Z,-1.32
2022-11-20T02:50:52.259Z,-1.35
2022-11-20T02:54:29.963Z,-1.36
2022-11-20T02:58:07.770Z,-1.34
2022-11-20T03:01:45.418Z,-1.32
2022-11-20T03:05:23.176Z,-1.32
2022-11-20T03:09:01.393Z,-1.32
2022-11-20T03:12:38.482Z,-1.30
2022-11-20T03:16:22.337Z,-1.27
2022-11-20T03:20:36.387Z,-1.23
2022-11-20T03:23:45.726Z,-1.18
2022-11-20T03:27:23.158Z,-1.14
2022-11-20T03:31:07.185Z,-1.14
2022-11-20T03:34:38.736Z,-1.16
2022-11-20T03:38:16.440Z,-1.18
2022-11-20T03:41:54.248Z,-1.21
2022-11-20T03:45:31.850Z,-1.25
2022-11-20T03:49:09.656Z,-1.25
2022-11-20T03:52:47.667Z,-1.26
2022-11-20T03:56:28.967Z,-1.23
2022-11-20T04:00:02.870Z,-1.19
2022-11-20T04:03:41.704Z,-1.19
2022-11-20T04:07:18.839Z,-1.21
2022-11-20T04:10:55.676Z,-1.22
2022-11-20T04:14:33.299Z,-1.26
2022-11-20T04:18:11.083Z,-1.30
2022-11-20T04:21:48.793Z,-1.32
2022-11-20T04:25:26.494Z,-1.32
2022-11-20T04:29:04.701Z,-1.34
2022-11-20T04:32:41.901Z,-1.35
2022-11-20T04:37:02.100Z,-1.33
2022-11-20T04:40:12.362Z,-1.27
2022-11-20T04:43:51.197Z,-1.21
2022-11-20T04:47:27.053Z,-1.21
2022-11-20T04:51:05.474Z,-1.23
2022-11-20T04:54:42.358Z,-1.25
2022-11-20T04:58:19.756Z,-1.25
2022-11-20T05:01:57.803Z,-1.26
2022-11-20T05:05:36.291Z,-1.27
2022-11-20T05:09:14.303Z,-1.26
2022-11-20T05:12:50.779Z,-1.25
2022-11-20T05:16:28.584Z,-1.29
2022-11-20T05:20:06.800Z,-1.31
2022-11-20T05:23:45.442Z,-1.32
2022-11-20T05:27:21.701Z,-1.31
2022-11-20T05:31:28.108Z,-1.32
2022-11-20T05:34:38.538Z,-1.33
2022-11-20T05:38:16.673Z,-1.37
2022-11-20T05:42:14.017Z,-1.42
2022-11-20T05:45:31.857Z,-1.46
2022-11-20T05:49:09.457Z,-1.46
2022-11-20T05:52:47.162Z,-1.50
2022-11-20T05:56:24.763Z,-1.54
2022-11-20T06:00:03.921Z,-1.55
2022-11-20T06:03:43.333Z,-1.56
2022-11-20T06:07:18.039Z,-1.60
2022-11-20T06:11:38.055Z,-1.61
2022-11-20T06:14:47.826Z,-1.58
2022-11-20T06:18:28.295Z,-1.56
2022-11-20T06:22:03.132Z,-1.53
2022-11-20T06:25:42.381Z,-1.50
2022-11-20T06:29:18.592Z,-1.48
2022-11-20T06:32:56.140Z,-1.48
2022-11-20T06:36:34.462Z,-1.50
2022-11-20T06:40:12.025Z,-1.52
2022-11-20T06:44:31.750Z,-1.53
2022-11-20T06:47:41.322Z,-1.53
2022-11-20T06:51:19.480Z,-1.53
2022-11-20T06:54:56.701Z,-1.54
2022-11-20T06:58:35.532Z,-1.58
2022-11-20T07:02:13.341Z,-1.61
2022-11-20T07:05:49.815Z,-1.63
2022-11-20T07:09:27.762Z,-1.63
2022-11-20T07:13:05.326Z,-1.62
2022-11-20T07:16:42.883Z,-1.58
2022-11-20T07:20:20.529Z,-1.55
2022-11-20T07:23:58.237Z,-1.52
2022-11-20T07:27:35.937Z,-1.50
2022-11-20T07:31:57.157Z,-1.46
2022-11-20T07:35:07.320Z,-1.41
2022-11-20T07:38:44.308Z,-1.39
2022-11-20T07:42:22.011Z,-1.38
2022-11-20T07:46:00.329Z,-1.39
2022-11-20T07:49:56.364Z,-1.38
2022-11-20T07:53:15.127Z,-1.37
2022-11-20T07:56:52.830Z,-1.38
2022-11-20T08:00:30.501Z,-1.38
2022-11-20T08:04:08.441Z,-1.37
2022-11-20T08:08:32.216Z,-1.30
2022-11-20T08:12:02.148Z,-1.26
2022-11-20T08:15:21.725Z,-1.23
2022-11-20T08:18:59.021Z,-1.19
2022-11-20T08:22:36.622Z,-1.17
2022-11-20T08:26:14.225Z,-1.15
2022-11-20T08:29:51.934Z,-1.12
2022-11-20T08:33:30.917Z,-1.09
2022-11-20T08:37:07.437Z,-1.07
2022-11-20T08:41:07.671Z,-1.03
2022-11-20T08:44:22.745Z,-0.98
2022-11-20T08:48:02.107Z,-0.96
2022-11-20T08:51:39.285Z,-0.85
2022-11-20T08:55:15.960Z,-0.66
2022-11-20T09:02:31.880Z,-0.13
2022-11-20T09:06:51.618Z,-0.07
2022-11-20T09:10:22.567Z,-0.11
2022-11-20T09:13:38.816Z,-0.11
2022-11-20T09:17:17.253Z,-0.03
2022-11-20T09:20:58.269Z,0.06
2022-11-20T09:24:31.828Z,0.14
2022-11-20T09:28:28.372Z,0.19
2022-11-20T09:31:47.337Z,0.18
2022-11-20T09:35:25.044Z,0.19
2022-11-20T09:39:45.140Z,0.28
2022-11-20T09:43:24.691Z,0.39
2022-11-20T09:47:02.390Z,0.56
2022-11-20T09:50:34.258Z,0.65
2022-11-20T09:54:21.077Z,0.55
2022-11-20T09:57:41.065Z,0.44
2022-11-20T10:01:22.517Z,0.37
2022-11-20T10:04:55.756Z,0.41
2022-11-20T10:08:31.518Z,0.48
2022-11-20T10:12:35.033Z,0.54
2022-11-20T10:16:10.784Z,0.55
2022-11-20T10:19:44.466Z,0.60
2022-11-20T10:23:25.777Z,0.66
2022-11-20T10:26:56.319Z,0.69
2022-11-20T10:30:18.977Z,0.68
2022-11-20T10:34:11.438Z,0.69
2022-11-20T10:37:56.941Z,0.75
2022-11-20T10:41:27.339Z,0.80
2022-11-20T10:45:53.376Z,0.87
2022-11-20T10:49:06.403Z,0.96
2022-11-20T10:52:55.063Z,1.04
2022-11-20T10:56:31.026Z,1.13
2022-11-20T11:00:15.160Z,1.10
2022-11-20T11:03:37.628Z,1.03
2022-11-20T11:07:25.829Z,0.94
2022-11-20T11:10:51.705Z,0.87
2022-11-20T11:14:26.557Z,0.82
2022-11-20T11:18:05.168Z,0.72
2022-11-20T11:22:06.324Z,0.72
2022-11-20T11:25:23.955Z,0.73
2022-11-20T11:29:04.077Z,0.71
2022-11-20T11:32:35.490Z,0.68
2022-11-20T11:36:21.886Z,0.62
2022-11-20T11:40:03.968Z,0.54
2022-11-20T11:43:57.368Z,0.47
2022-11-20T11:47:21.453Z,0.47
2022-11-20T11:50:51.553Z,0.49
2022-11-20T11:54:33.787Z,0.51
2022-11-20T11:58:03.399Z,0.51
2022-11-20T12:02:30.111Z,0.53
2022-11-20T12:05:44.367Z,0.54
2022-11-20T12:09:20.949Z,0.53
2022-11-20T12:13:03.430Z,0.52
2022-11-20T12:16:38.405Z,0.51
2022-11-20T12:20:15.659Z,0.48
2022-11-20T12:24:09.963Z,0.49
2022-11-20T12:28:04.069Z,0.49
2022-11-20T12:32:16.327Z,0.50
2022-11-20T12:36:07.145Z,0.49
2022-11-20T12:39:28.203Z,0.51
2022-11-20T12:43:38.234Z,0.53
2022-11-20T12:47:20.831Z,0.54
2022-11-20T12:51:14.039Z,0.57
2022-11-20T12:54:48.868Z,0.58
2022-11-20T12:58:14.369Z,0.56
2022-11-20T13:01:51.545Z,0.53
2022-11-20T13:05:25.365Z,0.51
2022-11-20T13:09:50.271Z,0.48
2022-11-20T13:13:21.429Z,0.49
2022-11-20T13:16:47.165Z,0.50
2022-11-20T13:20:19.273Z,0.48
2022-11-20T13:23:53.257Z,0.46
2022-11-20T13:27:32.302Z,0.49
2022-11-20T13:31:36.444Z,0.48
2022-11-20T13:34:54.871Z,0.50
2022-11-20T13:38:26.843Z,0.52
2022-11-20T13:42:15.701Z,0.53
2022-11-20T13:45:40.590Z,0.52
2022-11-20T13:49:43.933Z,0.53
2022-11-20T13:53:01.631Z,0.53
2022-11-20T13:56:33.944Z,0.54
2022-11-20T14:00:18.627Z,0.56
2022-11-20T14:04:06.437Z,0.55
2022-11-20T14:07:36.778Z,0.55
2022-11-20T14:11:25.932Z,0.56
2022-11-20T14:14:52.401Z,0.57
2022-11-20T14:18:23.152Z,0.59
2022-11-20T14:22:15.547Z,0.59
2022-11-20T14:25:35.229Z,0.56
2022-11-20T14:29:22.594Z,0.51
2022-11-20T14:32:52.126Z,0.41
2022-11-20T14:36:28.988Z,0.28
2022-11-20T14:40:24.492Z,0.20
2022-11-20T14:43:48.370Z,0.18
2022-11-20T14:48:04.587Z,0.16
2022-11-20T14:51:43.211Z,0.13
2022-11-20T14:55:01.678Z,0.11
2022-11-20T14:58:36.322Z,0.06
2022-11-20T15:02:44.749Z,0.03
2022-11-20T15:19:19.525Z,-0.11
2022-11-20T15:22:45.452Z,-0.09
2022-11-20T15:26:29.155Z,-0.09
2022-11-20T15:30:00.753Z,-0.12
2022-11-20T15:33:39.282Z,-0.11
2022-11-20T15:37:16.577Z,-0.10
2022-11-20T15:41:37.698Z,-0.10
2022-11-20T15:44:48.505Z,-0.12
2022-11-20T15:48:31.946Z,-0.16
2022-11-20T15:52:03.675Z,-0.16
2022-11-20T15:55:41.993Z,-0.15
2022-11-20T15:59:20.253Z,-0.14
2022-11-20T16:02:56.480Z,-0.11
2022-11-20T16:06:34.185Z,-0.08
2022-11-20T16:10:11.683Z,-0.05
2022-11-20T16:14:08.948Z,-0.03
2022-11-20T16:17:43.600Z,0.01
2022-11-20T16:21:05.308Z,0.02
2022-11-20T16:25:27.158Z,0.02
2022-11-20T16:28:36.895Z,-0.04
2022-11-20T16:32:14.907Z,-0.10
2022-11-20T16:35:52.302Z,-0.18
2022-11-20T16:39:29.802Z,-0.26
2022-11-20T16:43:11.089Z,-0.23
2022-11-20T16:46:45.108Z,-0.23
2022-11-20T16:50:22.860Z,-0.20
2022-11-20T16:54:08.417Z,-0.18
2022-11-20T16:57:39.143Z,-0.13
2022-11-20T17:01:21.031Z,-0.08
2022-11-20T17:08:32.009Z,-0.01
2022-11-20T17:12:09.868Z,0.02
2022-11-20T17:15:49.635Z,0.01
2022-11-20T17:19:25.093Z,-0.00
2022-11-20T17:23:05.880Z,-0.00
2022-11-20T17:26:41.338Z,-0.02
2022-11-20T17:30:17.458Z,-0.02
2022-11-20T17:33:55.470Z,-0.02
2022-11-20T17:37:32.966Z,-0.09
2022-11-20T17:41:13.641Z,-0.14
2022-11-20T17:44:48.887Z,-0.21
2022-11-20T17:48:26.387Z,-0.26
2022-11-20T17:52:03.783Z,-0.26
2022-11-20T17:56:00.024Z,-0.30
2022-11-20T17:59:19.498Z,-0.36
2022-11-20T18:02:56.793Z,-0.48
2022-11-20T18:06:34.803Z,-0.65
2022-11-20T18:10:12.493Z,-0.77
2022-11-20T18:14:14.688Z,-0.95
2022-11-20T18:17:27.621Z,-1.06
2022-11-20T18:21:05.211Z,-1.19
2022-11-20T18:24:43.632Z,-1.23
2022-11-20T18:28:20.926Z,-1.19
2022-11-20T18:32:00.611Z,-1.09
2022-11-20T18:35:36.130Z,-0.98
2022-11-20T18:39:14.755Z,-0.86
2022-11-20T18:43:10.175Z,-0.75
2022-11-20T18:46:55.513Z,-0.66
2022-11-20T18:50:15.600Z,-0.59
2022-11-20T18:54:07.968Z,-0.52
2022-11-20T18:57:25.156Z,-0.49
2022-11-20T19:01:07.703Z,-0.46
2022-11-20T19:04:39.933Z,-0.44
2022-11-20T19:08:24.211Z,-0.45
2022-11-20T19:12:37.498Z,-0.48
2022-11-20T19:16:25.489Z,-0.52
2022-11-20T19:19:41.870Z,-0.54
2022-11-20T19:23:15.060Z,-0.53
2022-11-20T19:26:52.535Z,-0.54
2022-11-20T19:30:30.177Z,-0.54
2022-11-20T19:34:09.093Z,-0.57
2022-11-20T19:37:45.733Z,-0.60
2022-11-20T19:41:32.025Z,-0.58
2022-11-20T19:45:01.081Z,-0.54
2022-11-20T19:48:38.681Z,-0.50
2022-11-20T19:52:16.487Z,-0.45
2022-11-20T19:56:01.249Z,-0.39
2022-11-20T19:59:32.145Z,-0.36
2022-11-20T20:03:10.155Z,-0.34
2022-11-20T20:06:48.572Z,-0.33
2022-11-20T20:11:14.662Z,-0.30
2022-11-20T20:14:24.098Z,-0.28
2022-11-20T20:18:01.921Z,-0.29
2022-11-20T20:21:41.555Z,-0.29
2022-11-20T20:25:18.659Z,-0.31
2022-11-20T20:28:55.957Z,-0.34
2022-11-20T20:32:33.066Z,-0.38
2022-11-20T20:36:13.273Z,-0.40
2022-11-20T20:39:47.769Z,-0.39
2022-11-20T20:43:25.952Z,-0.38
2022-11-20T20:47:03.042Z,-0.40
2022-11-20T20:50:42.179Z,-0.44
2022-11-20T20:54:18.966Z,-0.49
2022-11-20T20:57:56.873Z,-0.55
2022-11-20T21:01:34.334Z,-0.59
2022-11-20T21:05:14.020Z,-0.68
2022-11-20T21:08:50.654Z,-0.77
2022-11-20T21:12:28.774Z,-0.84
2022-11-20T21:16:05.864Z,-1.01
2022-11-20T21:19:42.702Z,-1.27
2022-11-20T21:23:20.186Z,-1.46
2022-11-20T21:26:58.811Z,-1.55
2022-11-20T21:30:36.183Z,-1.63
2022-11-20T21:34:14.632Z,-1.65
2022-11-20T21:37:51.215Z,-1.65
2022-11-20T21:41:30.763Z,-1.69
2022-11-20T21:45:07.012Z,-1.74
2022-11-20T21:48:47.555Z,-1.77
2022-11-20T21:52:24.997Z,-1.81
2022-11-20T21:56:02.763Z,-1.84
2022-11-20T21:59:39.684Z,-1.86
2022-11-20T22:03:18.070Z,-2.04
2022-11-20T22:06:55.833Z,-2.36
2022-11-20T22:10:33.471Z,-2.62
2022-11-20T22:14:22.282Z,-2.77
2022-11-20T22:18:07.355Z,-2.80
2022-11-20T22:21:28.825Z,-2.81
2022-11-20T22:25:03.987Z,-2.85
2022-11-20T22:28:42.082Z,-3.00
2022-11-20T22:32:19.799Z,-3.22
2022-11-20T22:36:07.302Z,-3.41
2022-11-20T22:39:34.637Z,-3.53
2022-11-20T22:43:09.574Z,-3.60
2022-11-20T22:46:47.279Z,-3.69
2022-11-20T22:50:24.990Z,-3.86
2022-11-20T22:54:03.659Z,-4.00
2022-11-20T22:57:40.392Z,-4.13
2022-11-20T23:01:22.295Z,-4.26
2022-11-20T23:04:55.698Z,-4.39
2022-11-20T23:08:34.121Z,-4.46
2022-11-20T23:12:11.207Z,-4.48
2022-11-20T23:15:49.554Z,-4.53
2022-11-20T23:19:26.481Z,-4.58
2022-11-20T23:23:04.320Z,-4.57
2022-11-20T23:26:42.231Z,-4.55
2022-11-20T23:30:19.729Z,-4.50
2022-11-20T23:33:59.024Z,-4.44
2022-11-20T23:37:35.136Z,-4.41
2022-11-20T23:41:13.867Z,-4.41
2022-11-20T23:44:50.442Z,-4.48
2022-11-20T23:48:31.326Z,-4.55
2022-11-20T23:52:05.804Z,-4.66
2022-11-20T23:55:49.396Z,-4.73
2022-11-20T23:59:21.229Z,-4.80
